Old Round Rock, Texas
Current Conditions -  °F | °C
As of 3:55 AM on Friday 19 Dec 2014 (Local Time) from KEDC Reporting Station
Light Rain Light Rain  
Wind Chill: 44°   Ceiling: 600
Heat Index: 48°   Visibility: 7mi
Dew Point: 48°   Wind: 10mph
Humidity: 100%   Direction: 20°NNE
Pressure: 30.06"   Gusts: NA
Location:  30.523°N, 97.6428°W
Report Text: KEDC 190955Z AUTO 02009KT 7SM -RA BKN006 OVC011 09/09 A3006 RMK AO2 P0004
Loading
Personal Weather Stations






























Interactive Weather Map New forecast layout! Learn more

10-Day Weather Forecast

Advertisements
Track Severe Weather on mobile